This is the latest recevied weather packets stored in our database for station/object EA1JAO-11. If no packets are shown the sender has not sent any weather packets the latest 1 day(s).
| Time | Temp. | Humidity | Pressure | Rain* | Wind** | Luminosity | Snow |
|---|---|---|---|---|---|---|---|
| 1777836984 | 14.44° C | 77% | 1012.8 hPa | - | - | - | - |
| 1777835184 | 15.56° C | 71% | 1012.6 hPa | - | - | - | - |
| 1777833388 | 16.11° C | 68% | 1012.5 hPa | - | - | - | - |
| 1777831588 | 17.78° C | 60% | 1012.5 hPa | - | - | - | - |
| 1777829788 | 23.89° C | 43% | 1012.2 hPa | - | - | - | - |
| 1777827988 | 23.89° C | 48% | 1011.9 hPa | - | - | - | - |
| 1777824388 | 24.44° C | 43% | 1011.9 hPa | - | - | - | - |
| 1777822588 | 25° C | 41% | 1012 hPa | - | - | - | - |
| 1777820787 | 18.89° C | 66% | 1012.1 hPa | - | - | - | - |
| 1777818988 | 19.44° C | 66% | 1012.2 hPa | - | - | - | - |
| 1777817187 | 18.33° C | 67% | 1012.5 hPa | - | - | - | - |
| 1777815388 | 18.89° C | 70% | 1012.6 hPa | - | - | - | - |
| 1777813587 | 18.33° C | 72% | 1012.6 hPa | - | - | - | - |
| 1777811787 | 16.11° C | 79% | 1012.7 hPa | - | - | - | - |
| 1777809985 | 16.11° C | 76% | 1012.5 hPa | - | - | - | - |
| 1777808185 | 18.33° C | 65% | 1012.4 hPa | - | - | - | - |
| 1777806385 | 18.33° C | 68% | 1012.5 hPa | - | - | - | - |
| 1777804585 | 19.44° C | 65% | 1012.4 hPa | - | - | - | - |
| 1777802785 | 18.33° C | 72% | 1012.3 hPa | - | - | - | - |
| 1777800985 | 17.22° C | 79% | 1012.5 hPa | - | - | - | - |
| 1777799185 | 16.67° C | 83% | 1012.6 hPa | - | - | - | - |
| 1777797385 | 15.56° C | 90% | 1012.7 hPa | - | - | - | - |
* Rain since midnight (hover to see other rain measurements)
** Current wind speed in m/s (hover to see current wind gust speed)